createdAt,value
2023-03-22T00:01:43.238Z,56.80
2023-03-22T00:04:11.418Z,54.50
2023-03-22T00:06:39.349Z,54.10
2023-03-22T00:09:07.227Z,53.50
2023-03-22T00:11:35.233Z,58.40
2023-03-22T00:14:03.281Z,53.80
2023-03-22T00:16:31.622Z,59.10
2023-03-22T00:18:59.604Z,55.50
2023-03-22T00:21:30.120Z,54.60
2023-03-22T00:23:58.081Z,58.60
2023-03-22T00:26:25.992Z,61.10
2023-03-22T00:28:53.862Z,51.30
2023-03-22T00:31:21.754Z,53.30
2023-03-22T00:33:49.647Z,56.80
2023-03-22T00:36:17.640Z,62.80
2023-03-22T00:38:45.577Z,55.60
2023-03-22T00:41:14.590Z,58.50
2023-03-22T00:43:42.643Z,56.20
2023-03-22T00:46:10.895Z,63.10
2023-03-22T00:48:38.906Z,64.20
2023-03-22T00:51:07.640Z,60.50
2023-03-22T00:53:36.709Z,55.40
2023-03-22T00:56:05.677Z,59.30
2023-03-22T00:58:42.304Z,54.70
2023-03-22T01:01:14.177Z,54.00
2023-03-22T01:03:43.004Z,60.80
2023-03-22T01:06:11.437Z,57.60
2023-03-22T01:08:39.592Z,58.30
2023-03-22T01:11:07.875Z,57.10
2023-03-22T01:13:37.735Z,62.00
2023-03-22T01:16:06.755Z,62.00
2023-03-22T01:18:35.214Z,57.10
2023-03-22T01:21:03.626Z,62.00
2023-03-22T01:23:32.127Z,63.70
2023-03-22T01:26:00.251Z,60.00
2023-03-22T01:28:29.109Z,63.20
2023-03-22T01:30:57.218Z,67.60
2023-03-22T01:33:25.231Z,62.90
2023-03-22T01:35:53.413Z,64.00
2023-03-22T01:38:21.763Z,60.40
2023-03-22T01:40:57.311Z,62.80
2023-03-22T01:43:25.436Z,61.20
2023-03-22T01:45:53.990Z,67.40
2023-03-22T01:48:37.298Z,63.90
2023-03-22T01:51:17.054Z,67.00
2023-03-22T01:54:21.184Z,60.40
2023-03-22T01:56:49.465Z,69.20
2023-03-22T01:59:23.415Z,60.40
2023-03-22T02:02:22.159Z,66.10
2023-03-22T02:04:58.282Z,63.80
2023-03-22T02:07:28.367Z,61.60
2023-03-22T02:09:58.346Z,59.50
2023-03-22T02:12:37.814Z,58.30
2023-03-22T02:15:30.122Z,57.70
2023-03-22T02:18:51.533Z,59.50
2023-03-22T02:21:56.862Z,57.50
2023-03-22T02:24:35.891Z,58.60
2023-03-22T02:27:12.869Z,63.60
2023-03-22T02:29:48.921Z,54.20
2023-03-22T02:32:48.159Z,56.20
2023-03-22T02:35:48.764Z,60.60
2023-03-22T02:38:28.873Z,59.10
2023-03-22T02:41:08.919Z,50.90
2023-03-22T02:43:53.320Z,55.30
2023-03-22T02:46:57.127Z,57.40
2023-03-22T02:49:35.921Z,59.00
2023-03-22T02:52:10.445Z,58.20
2023-03-22T02:54:40.230Z,61.40
2023-03-22T02:57:17.168Z,57.20
2023-03-22T02:59:45.088Z,64.20
2023-03-22T03:02:13.746Z,55.10
2023-03-22T03:04:45.319Z,60.40
2023-03-22T03:07:14.588Z,63.50
2023-03-22T03:09:42.544Z,58.90
2023-03-22T03:12:16.185Z,62.30
2023-03-22T03:14:44.226Z,62.70
2023-03-22T03:17:18.327Z,64.60
2023-03-22T03:20:20.071Z,65.10
2023-03-22T03:22:54.666Z,59.20
2023-03-22T03:25:43.737Z,64.60
2023-03-22T03:28:38.582Z,64.80
2023-03-22T03:31:09.765Z,68.20
2023-03-22T03:33:57.384Z,67.30
2023-03-22T03:36:25.350Z,64.30
2023-03-22T03:38:53.374Z,69.90
2023-03-22T03:41:23.811Z,75.50
2023-03-22T03:43:51.783Z,72.70
2023-03-22T03:46:20.290Z,71.50
2023-03-22T03:48:49.146Z,64.50
2023-03-22T03:51:17.062Z,72.10
2023-03-22T03:53:45.107Z,74.90
2023-03-22T03:56:13.110Z,76.90
2023-03-22T03:58:44.818Z,69.70
2023-03-22T04:01:12.883Z,60.90
2023-03-22T04:04:07.557Z,69.90
2023-03-22T04:06:45.218Z,80.90
2023-03-22T04:09:17.651Z,81.40
2023-03-22T04:11:49.077Z,71.70
2023-03-22T04:14:17.483Z,73.00
2023-03-22T04:16:47.990Z,84.10
2023-03-22T04:19:17.364Z,82.70
2023-03-22T04:21:46.025Z,81.60
2023-03-22T04:24:14.180Z,81.80
2023-03-22T04:26:43.995Z,79.10
2023-03-22T04:29:36.403Z,76.40
2023-03-22T04:32:28.762Z,93.90
2023-03-22T04:34:57.579Z,90.70
2023-03-22T04:37:27.177Z,81.80
2023-03-22T04:40:16.680Z,78.10
2023-03-22T04:43:04.269Z,81.40
2023-03-22T04:45:46.367Z,86.60
2023-03-22T04:48:20.675Z,86.60
2023-03-22T04:50:49.368Z,78.20
2023-03-22T04:53:17.601Z,75.10
2023-03-22T04:55:46.662Z,78.80
2023-03-22T04:58:16.644Z,87.00
2023-03-22T05:00:45.562Z,87.70
2023-03-22T05:03:19.681Z,88.30
2023-03-22T05:05:56.542Z,83.70
2023-03-22T05:08:27.030Z,92.00
2023-03-22T05:10:55.873Z,85.80
2023-03-22T05:13:26.118Z,89.50
2023-03-22T05:15:55.367Z,86.00
2023-03-22T05:18:30.555Z,86.80
2023-03-22T05:20:59.030Z,88.20
2023-03-22T05:23:27.502Z,88.80
2023-03-22T05:25:59.113Z,82.40
2023-03-22T05:28:32.824Z,86.40
2023-03-22T05:31:16.530Z,96.80
2023-03-22T05:33:58.322Z,92.30
2023-03-22T05:36:30.120Z,94.00
2023-03-22T05:39:20.590Z,83.60
2023-03-22T05:41:49.377Z,81.70
2023-03-22T05:44:17.410Z,85.60
2023-03-22T05:46:55.599Z,83.50
2023-03-22T05:49:34.938Z,76.80
2023-03-22T05:52:06.323Z,71.20
2023-03-22T05:55:00.276Z,82.10
2023-03-22T05:57:30.355Z,83.10
2023-03-22T05:59:59.309Z,86.80
2023-03-22T06:02:41.632Z,86.30
2023-03-22T06:05:13.666Z,81.10
2023-03-22T06:07:43.576Z,86.90
2023-03-22T06:10:18.048Z,92.20
2023-03-22T06:12:47.476Z,86.00
2023-03-22T06:15:22.912Z,77.80
2023-03-22T06:18:02.861Z,85.60
2023-03-22T06:20:46.454Z,81.20
2023-03-22T06:23:27.821Z,90.00
2023-03-22T06:25:55.957Z,83.50
2023-03-22T06:28:24.142Z,85.20
2023-03-22T06:30:54.832Z,84.00
2023-03-22T06:33:30.600Z,77.90
2023-03-22T06:36:07.660Z,86.30
2023-03-22T06:38:43.557Z,85.00
2023-03-22T06:41:12.177Z,93.40
2023-03-22T06:43:40.110Z,85.00
2023-03-22T06:46:17.399Z,80.10
2023-03-22T06:48:54.828Z,85.90
2023-03-22T06:51:23.059Z,77.50
2023-03-22T06:53:51.366Z,86.80
2023-03-22T06:56:20.262Z,86.60
2023-03-22T06:58:54.889Z,81.20
2023-03-22T07:01:23.001Z,95.90
2023-03-22T07:03:51.204Z,88.90
2023-03-22T07:06:23.154Z,77.50
2023-03-22T07:08:52.244Z,70.80
2023-03-22T07:11:27.318Z,76.20
2023-03-22T07:14:00.379Z,81.20
2023-03-22T07:16:35.558Z,68.50
2023-03-22T07:19:05.388Z,75.50
2023-03-22T07:21:33.558Z,76.20
2023-03-22T07:24:07.870Z,69.60
2023-03-22T07:26:42.177Z,66.50
2023-03-22T07:29:11.446Z,67.30
2023-03-22T07:31:40.244Z,66.60
2023-03-22T07:34:12.225Z,59.20
2023-03-22T07:37:03.819Z,54.70
2023-03-22T07:39:32.105Z,52.70
2023-03-22T07:42:00.329Z,61.30
2023-03-22T07:44:54.286Z,46.70
2023-03-22T07:47:40.060Z,51.10
2023-03-22T07:50:25.568Z,53.80
2023-03-22T07:52:56.652Z,57.60
2023-03-22T07:55:24.749Z,47.60
2023-03-22T07:57:53.841Z,46.70
2023-03-22T08:00:22.576Z,44.70
2023-03-22T08:02:56.634Z,53.40
2023-03-22T08:05:42.424Z,50.70
2023-03-22T08:08:13.769Z,56.10
2023-03-22T08:10:42.148Z,54.60
2023-03-22T08:13:10.758Z,45.20
2023-03-22T08:15:39.180Z,46.20
2023-03-22T08:18:08.948Z,51.90
2023-03-22T08:20:41.353Z,48.10
2023-03-22T08:23:16.194Z,47.00
2023-03-22T08:25:53.448Z,49.40
2023-03-22T08:28:22.565Z,48.50
2023-03-22T08:30:51.002Z,48.60
2023-03-22T08:33:23.340Z,43.30
2023-03-22T08:35:51.735Z,41.60
2023-03-22T08:38:20.175Z,49.20
2023-03-22T08:40:51.209Z,47.70
2023-03-22T08:43:22.733Z,49.00
2023-03-22T08:45:51.919Z,44.10
2023-03-22T08:48:21.206Z,47.60
2023-03-22T08:51:06.762Z,43.60
2023-03-22T08:54:00.358Z,42.70
2023-03-22T08:56:46.913Z,38.70
2023-03-22T08:59:24.384Z,45.00
2023-03-22T09:02:04.242Z,38.10
2023-03-22T09:04:32.357Z,47.90
2023-03-22T09:07:00.419Z,48.20
2023-03-22T09:09:28.465Z,47.50
2023-03-22T09:11:58.270Z,42.10
2023-03-22T09:14:26.305Z,45.00
2023-03-22T09:16:54.648Z,48.00
2023-03-22T09:19:22.655Z,43.40
2023-03-22T09:21:50.789Z,39.60
2023-03-22T09:24:28.091Z,42.40
2023-03-22T09:26:58.347Z,40.60
2023-03-22T09:29:26.347Z,37.40
2023-03-22T09:31:54.311Z,38.60
2023-03-22T09:34:27.817Z,36.80
2023-03-22T09:36:58.771Z,37.40
2023-03-22T09:39:29.409Z,35.20
2023-03-22T09:42:01.318Z,35.10
2023-03-22T09:44:32.484Z,37.30
2023-03-22T09:47:02.309Z,34.90
2023-03-22T09:49:52.528Z,36.10
2023-03-22T09:52:24.456Z,36.60
2023-03-22T09:54:53.422Z,35.00
2023-03-22T09:57:29.739Z,38.70
2023-03-22T10:00:21.022Z,33.90
2023-03-22T10:02:59.148Z,35.30
2023-03-22T10:05:39.095Z,35.20
2023-03-22T10:08:26.315Z,31.70
2023-03-22T10:10:54.577Z,23.50
2023-03-22T10:13:25.700Z,26.30
2023-03-22T10:15:59.996Z,28.80
2023-03-22T10:18:47.395Z,24.60
2023-03-22T10:21:17.446Z,23.80
2023-03-22T10:23:56.500Z,23.70
2023-03-22T10:26:37.560Z,24.60
2023-03-22T10:29:14.264Z,28.40
2023-03-22T10:31:43.620Z,22.80
2023-03-22T10:34:21.467Z,22.40
2023-03-22T10:36:51.225Z,24.80
2023-03-22T10:39:32.149Z,31.40
2023-03-22T10:42:02.040Z,29.20
2023-03-22T10:44:31.532Z,24.40
2023-03-22T10:46:59.956Z,23.50
2023-03-22T10:49:31.768Z,26.50
2023-03-22T10:52:03.657Z,25.60
2023-03-22T10:54:31.685Z,24.50
2023-03-22T10:56:59.653Z,24.80
2023-03-22T10:59:49.847Z,20.80
2023-03-22T11:02:30.057Z,24.60
2023-03-22T11:05:03.982Z,23.70
2023-03-22T11:07:34.761Z,24.80
2023-03-22T11:10:08.582Z,24.60
2023-03-22T11:12:40.097Z,24.50
2023-03-22T11:15:23.506Z,24.70
2023-03-22T11:17:51.654Z,24.50
2023-03-22T11:20:20.519Z,24.00
2023-03-22T11:22:49.622Z,22.70
2023-03-22T11:25:28.478Z,23.60
2023-03-22T11:28:06.124Z,20.90
2023-03-22T11:30:34.661Z,24.30
2023-03-22T11:33:08.695Z,22.70
2023-03-22T11:35:38.390Z,20.50
2023-03-22T11:38:06.360Z,22.40
2023-03-22T11:40:35.794Z,20.60
2023-03-22T11:43:18.282Z,21.60
2023-03-22T11:45:46.381Z,20.90
2023-03-22T11:48:21.466Z,20.80
2023-03-22T11:50:49.635Z,21.30
2023-03-22T11:53:19.804Z,22.90
2023-03-22T11:55:49.057Z,21.90
2023-03-22T11:58:45.970Z,22.10
2023-03-22T12:01:19.286Z,20.10
2023-03-22T12:03:50.018Z,21.40
2023-03-22T12:06:24.812Z,19.60
2023-03-22T12:09:06.618Z,17.90
2023-03-22T12:11:41.689Z,21.40
2023-03-22T12:14:17.423Z,20.40
2023-03-22T12:16:49.989Z,18.90
2023-03-22T12:19:36.742Z,20.40
2023-03-22T12:22:29.713Z,18.70
2023-03-22T12:24:58.998Z,18.30
2023-03-22T12:27:29.864Z,16.80
2023-03-22T12:30:10.407Z,20.70
2023-03-22T12:32:42.114Z,18.60
2023-03-22T12:35:18.301Z,21.10
2023-03-22T12:37:48.554Z,16.70
2023-03-22T12:40:23.146Z,18.60
2023-03-22T12:43:19.841Z,16.90
2023-03-22T12:45:53.359Z,19.50
2023-03-22T12:48:28.732Z,20.40
2023-03-22T12:50:58.668Z,17.20
2023-03-22T12:53:28.836Z,18.50
2023-03-22T12:55:56.873Z,18.80
2023-03-22T12:58:25.976Z,19.30
2023-03-22T13:01:23.074Z,18.70
2023-03-22T13:03:54.044Z,18.80
2023-03-22T13:06:32.722Z,15.60
2023-03-22T13:09:15.627Z,17.90
2023-03-22T13:11:45.726Z,13.80
2023-03-22T13:14:56.334Z,14.70
2023-03-22T13:17:24.601Z,14.00
2023-03-22T13:20:11.733Z,14.70
2023-03-22T13:22:41.708Z,13.60
2023-03-22T13:25:13.360Z,15.50
2023-03-22T13:28:00.700Z,16.00
2023-03-22T13:31:04.280Z,16.50
2023-03-22T13:33:34.858Z,14.20
2023-03-22T13:36:07.541Z,14.40
2023-03-22T13:38:42.799Z,15.90
2023-03-22T13:41:14.052Z,16.20
2023-03-22T13:43:52.150Z,15.10
2023-03-22T13:46:20.802Z,14.20
2023-03-22T13:48:49.581Z,13.20
2023-03-22T13:51:21.333Z,15.60
2023-03-22T13:54:13.768Z,17.10
2023-03-22T13:56:47.907Z,15.10
2023-03-22T13:59:25.672Z,18.40
2023-03-22T14:02:16.079Z,16.00
2023-03-22T14:04:56.290Z,17.60
2023-03-22T14:07:27.614Z,17.10
2023-03-22T14:10:05.728Z,17.00
2023-03-22T14:12:52.623Z,13.80
2023-03-22T14:15:32.141Z,15.20
2023-03-22T14:18:04.581Z,20.30
2023-03-22T14:20:36.682Z,17.60
